createdAt,value
2023-04-24T00:00:55.113Z,99520
2023-04-24T00:02:55.326Z,99520
2023-04-24T00:04:55.526Z,99530
2023-04-24T00:06:55.363Z,99530
2023-04-24T00:08:55.347Z,99530
2023-04-24T00:10:55.527Z,99530
2023-04-24T00:12:55.553Z,99530
2023-04-24T00:14:55.666Z,99530
2023-04-24T00:16:55.805Z,99530
2023-04-24T00:18:55.826Z,99530
2023-04-24T00:20:55.957Z,99530
2023-04-24T00:22:56.253Z,99530
2023-04-24T00:24:56.245Z,99530
2023-04-24T00:26:56.186Z,99530
2023-04-24T00:28:56.362Z,99530
2023-04-24T00:30:56.625Z,99530
2023-04-24T00:32:57.654Z,99530
2023-04-24T00:34:56.763Z,99530
2023-04-24T00:36:56.632Z,99530
2023-04-24T00:38:56.862Z,99530
2023-04-24T00:40:56.882Z,99530
2023-04-24T00:42:57.107Z,99530
2023-04-24T00:44:57.794Z,99530
2023-04-24T00:46:58.511Z,99530
2023-04-24T00:48:57.170Z,99530
2023-04-24T00:50:57.920Z,99530
2023-04-24T00:52:58.137Z,99530
2023-04-24T00:54:57.646Z,99530
2023-04-24T00:56:57.662Z,99530
2023-04-24T00:58:58.087Z,99530
2023-04-24T01:00:58.978Z,99530
2023-04-24T01:03:01.105Z,99530
2023-04-24T01:04:57.963Z,99530
2023-04-24T01:06:58.085Z,99530
2023-04-24T01:08:59.056Z,99530
2023-04-24T01:10:58.337Z,99530
2023-04-24T01:12:58.686Z,99530
2023-04-24T01:14:58.387Z,99530
2023-04-24T01:16:58.334Z,99530
2023-04-24T01:18:58.247Z,99530
2023-04-24T01:20:59.886Z,99530
2023-04-24T01:22:58.646Z,99530
2023-04-24T01:24:58.711Z,99530
2023-04-24T01:26:58.857Z,99530
2023-04-24T01:28:58.878Z,99520
2023-04-24T01:30:58.864Z,99520
2023-04-24T01:32:59.714Z,99520
2023-04-24T01:34:58.974Z,99520
2023-04-24T01:36:59.756Z,99520
2023-04-24T01:39:00.241Z,99520
2023-04-24T01:40:59.122Z,99520
2023-04-24T01:42:59.274Z,99520
2023-04-24T01:45:00.052Z,99520
2023-04-24T01:47:00.776Z,99520
2023-04-24T01:49:01.039Z,99520
2023-04-24T01:51:00.066Z,99520
2023-04-24T01:52:59.536Z,99520
2023-04-24T01:55:00.777Z,99520
2023-04-24T01:57:00.997Z,99520
2023-04-24T01:59:01.024Z,99520
2023-04-24T02:01:00.268Z,99520
2023-04-24T02:03:01.069Z,99520
2023-04-24T02:04:59.706Z,99520
2023-04-24T02:07:00.238Z,99520
2023-04-24T02:09:00.323Z,99520
2023-04-24T02:10:59.952Z,99520
2023-04-24T02:12:59.983Z,99520
2023-04-24T02:15:00.214Z,99520
2023-04-24T02:17:00.223Z,99520
2023-04-24T02:19:00.190Z,99520
2023-04-24T02:21:00.168Z,99520
2023-04-24T02:23:00.256Z,99520
2023-04-24T02:25:00.449Z,99520
2023-04-24T02:27:00.780Z,99520
2023-04-24T02:29:00.843Z,99520
2023-04-24T02:31:00.705Z,99530
2023-04-24T02:33:01.827Z,99530
2023-04-24T02:35:00.872Z,99530
2023-04-24T02:37:01.208Z,99530
2023-04-24T02:39:00.989Z,99530
2023-04-24T02:41:00.899Z,99530
2023-04-24T02:43:01.036Z,99530
2023-04-24T02:45:01.365Z,99530
2023-04-24T02:47:01.179Z,99530
2023-04-24T02:49:01.362Z,99530
2023-04-24T02:51:01.391Z,99530
2023-04-24T02:53:01.489Z,99530
2023-04-24T02:55:01.718Z,99530
2023-04-24T02:57:01.889Z,99530
2023-04-24T02:59:01.641Z,99530
2023-04-24T03:01:01.763Z,99540
2023-04-24T03:03:02.046Z,99540
2023-04-24T03:05:01.963Z,99540
2023-04-24T03:07:01.864Z,99540
2023-04-24T03:09:02.008Z,99540
2023-04-24T03:11:02.126Z,99550
2023-04-24T03:13:02.215Z,99550
2023-04-24T03:15:02.731Z,99550
2023-04-24T03:17:02.389Z,99550
2023-04-24T03:19:03.151Z,99550
2023-04-24T03:21:02.824Z,99550
2023-04-24T03:23:03.228Z,99550
2023-04-24T03:25:04.865Z,99550
2023-04-24T03:27:20.340Z,99550
2023-04-24T03:29:03.448Z,99560
2023-04-24T03:31:06.161Z,99560
2023-04-24T03:33:06.493Z,99560
2023-04-24T03:35:04.787Z,99560
2023-04-24T03:37:06.244Z,99560
2023-04-24T03:39:08.592Z,99560
2023-04-24T03:41:10.061Z,99560
2023-04-24T03:43:06.258Z,99560
2023-04-24T03:45:08.122Z,99560
2023-04-24T03:47:06.076Z,99560
2023-04-24T03:49:08.216Z,99560
2023-04-24T03:51:06.719Z,99560
2023-04-24T03:53:10.292Z,99560
2023-04-24T03:55:11.836Z,99560
2023-04-24T03:57:08.102Z,99560
2023-04-24T03:59:08.186Z,99560
2023-04-24T04:01:30.191Z,99560
2023-04-24T04:03:08.629Z,99560
2023-04-24T04:05:57.908Z,99560
2023-04-24T04:06:00.522Z,99560
2023-04-24T04:07:09.031Z,99560
2023-04-24T04:09:09.871Z,99560
2023-04-24T04:11:09.524Z,99560
2023-04-24T04:13:10.318Z,99560
2023-04-24T04:15:10.731Z,99560
2023-04-24T04:17:10.944Z,99560
2023-04-24T04:19:11.496Z,99560
2023-04-24T04:21:11.828Z,99560
2023-04-24T04:23:21.510Z,99560
2023-04-24T04:25:12.927Z,99560
2023-04-24T04:27:19.456Z,99560
2023-04-24T04:29:18.045Z,99560
2023-04-24T04:31:13.516Z,99560
2023-04-24T04:33:13.941Z,99570
2023-04-24T04:35:14.486Z,99570
2023-04-24T04:37:27.215Z,99570
2023-04-24T04:39:22.145Z,99570
2023-04-24T04:41:15.633Z,99570
2023-04-24T04:43:19.869Z,99570
2023-04-24T04:45:29.471Z,99570
2023-04-24T04:47:17.778Z,99580
2023-04-24T04:49:17.952Z,99580
2023-04-24T04:51:18.621Z,99580
2023-04-24T04:53:19.516Z,99580
2023-04-24T04:55:34.491Z,99580
2023-04-24T04:57:20.172Z,99580
2023-04-24T04:59:21.138Z,99580
2023-04-24T05:01:21.956Z,99580
2023-04-24T05:03:22.992Z,99580
2023-04-24T05:05:22.963Z,99580
2023-04-24T05:07:24.968Z,99580
2023-04-24T05:09:26.921Z,99580
2023-04-24T05:11:24.754Z,99580
2023-04-24T05:13:36.207Z,99580
2023-04-24T05:15:25.449Z,99580
2023-04-24T05:17:27.383Z,99580
2023-04-24T05:19:26.574Z,99580
2023-04-24T05:21:27.041Z,99580
2023-04-24T05:23:28.065Z,99580
2023-04-24T05:25:32.422Z,99580
2023-04-24T05:27:29.147Z,99580
2023-04-24T05:29:29.832Z,99580
2023-04-24T05:31:30.599Z,99580
2023-04-24T05:33:31.171Z,99580
2023-04-24T05:35:31.682Z,99580
2023-04-24T05:37:32.548Z,99580
2023-04-24T05:39:33.792Z,99580
2023-04-24T05:41:33.749Z,99580
2023-04-24T05:43:34.634Z,99580
2023-04-24T05:45:35.275Z,99580
2023-04-24T05:47:36.273Z,99580
2023-04-24T05:49:37.094Z,99580
2023-04-24T05:51:37.489Z,99580
2023-04-24T05:53:38.057Z,99580
2023-04-24T05:55:38.906Z,99580
2023-04-24T05:57:40.507Z,99580
2023-04-24T05:59:41.405Z,99570
2023-04-24T06:01:45.449Z,99570
2023-04-24T06:03:42.671Z,99570
2023-04-24T06:05:42.600Z,99570
2023-04-24T06:07:43.303Z,99570
2023-04-24T06:09:43.935Z,99570
2023-04-24T06:11:44.753Z,99570
2023-04-24T06:14:01.012Z,99570
2023-04-24T06:15:51.917Z,99570
2023-04-24T06:17:48.357Z,99570
2023-04-24T06:19:47.454Z,99570
2023-04-24T06:21:47.903Z,99570
2023-04-24T06:23:49.130Z,99570
2023-04-24T06:25:49.823Z,99570
2023-04-24T06:27:50.087Z,99570
2023-04-24T06:29:51.596Z,99570
2023-04-24T06:31:51.602Z,99570
2023-04-24T06:33:52.184Z,99570
2023-04-24T06:35:52.953Z,99570
2023-04-24T06:37:53.748Z,99570
2023-04-24T06:39:54.363Z,99570
2023-04-24T06:41:55.147Z,99570
2023-04-24T06:43:55.952Z,99570
2023-04-24T06:45:57.454Z,99570
2023-04-24T06:47:57.584Z,99570
2023-04-24T06:49:59.120Z,99570
2023-04-24T06:51:58.798Z,99570
2023-04-24T06:53:59.921Z,99570
2023-04-24T06:56:00.568Z,99570
2023-04-24T06:58:01.116Z,99570
2023-04-24T07:00:01.593Z,99570
2023-04-24T07:02:02.437Z,99570
2023-04-24T07:04:03.333Z,99570
2023-04-24T07:06:04.463Z,99570
2023-04-24T07:08:04.518Z,99570
2023-04-24T07:10:06.229Z,99570
2023-04-24T07:12:05.775Z,99570
2023-04-24T07:14:06.479Z,99570
2023-04-24T07:16:07.186Z,99580
2023-04-24T07:18:07.992Z,99580
2023-04-24T07:20:09.170Z,99580
2023-04-24T07:22:08.967Z,99580
2023-04-24T07:24:09.594Z,99580
2023-04-24T07:26:10.219Z,99580
2023-04-24T07:28:10.783Z,99580
2023-04-24T07:30:11.936Z,99580
2023-04-24T07:32:11.666Z,99570
2023-04-24T07:34:12.163Z,99570
2023-04-24T07:36:12.652Z,99570
2023-04-24T07:38:13.335Z,99570
2023-04-24T07:40:13.996Z,99570
2023-04-24T07:42:13.946Z,99570
2023-04-24T07:44:14.608Z,99570
2023-04-24T07:46:14.969Z,99570
2023-04-24T07:48:15.332Z,99570
2023-04-24T07:50:15.890Z,99570
2023-04-24T07:52:16.271Z,99570
2023-04-24T07:54:16.850Z,99570
2023-04-24T07:56:17.248Z,99570
2023-04-24T07:58:17.639Z,99560
2023-04-24T08:00:18.675Z,99570
2023-04-24T08:02:18.597Z,99570
2023-04-24T08:04:19.273Z,99570
2023-04-24T08:06:19.457Z,99570
2023-04-24T08:08:22.749Z,99570
2023-04-24T08:10:21.474Z,99570
2023-04-24T08:12:20.827Z,99560
2023-04-24T08:14:21.370Z,99560
2023-04-24T08:16:21.725Z,99560
2023-04-24T08:18:22.835Z,99560
2023-04-24T08:20:22.635Z,99560
2023-04-24T08:22:22.967Z,99560
2023-04-24T08:24:23.772Z,99560
2023-04-24T08:26:24.236Z,99560
2023-04-24T08:28:24.557Z,99560
2023-04-24T08:30:24.905Z,99560
2023-04-24T08:32:25.369Z,99560
2023-04-24T08:34:25.794Z,99560
2023-04-24T08:36:33.166Z,99550
2023-04-24T08:38:26.793Z,99550
2023-04-24T08:40:29.141Z,99550
2023-04-24T08:42:30.609Z,99550
2023-04-24T08:44:28.134Z,99540
2023-04-24T08:46:30.272Z,99540
2023-04-24T08:48:31.899Z,99540
2023-04-24T08:50:29.966Z,99540
2023-04-24T08:52:30.277Z,99540
2023-04-24T08:54:31.006Z,99540
2023-04-24T08:56:33.780Z,99540
2023-04-24T08:58:32.856Z,99530
2023-04-24T09:00:32.332Z,99530
2023-04-24T09:02:32.214Z,99530
2023-04-24T09:04:35.543Z,99530
2023-04-24T09:06:33.215Z,99530
2023-04-24T09:08:33.911Z,99530
2023-04-24T09:10:35.760Z,99530
2023-04-24T09:12:35.137Z,99530
2023-04-24T09:14:35.276Z,99530
2023-04-24T09:16:36.682Z,99530
2023-04-24T09:18:35.643Z,99530
2023-04-24T09:20:51.309Z,99530
2023-04-24T09:22:37.228Z,99520
2023-04-24T09:24:36.959Z,99520
2023-04-24T09:26:37.574Z,99520
2023-04-24T09:28:39.296Z,99520
2023-04-24T09:30:38.265Z,99520
2023-04-24T09:32:38.938Z,99520
2023-04-24T09:34:39.071Z,99520
2023-04-24T09:36:41.980Z,99510
2023-04-24T09:38:39.959Z,99510
2023-04-24T09:40:41.644Z,99500
2023-04-24T09:42:43.637Z,99490
2023-04-24T09:44:41.492Z,99490
2023-04-24T09:46:42.336Z,99500
2023-04-24T09:48:42.045Z,99510
2023-04-24T09:50:46.902Z,99510
2023-04-24T09:52:44.781Z,99510
2023-04-24T09:54:53.700Z,99510
2023-04-24T09:56:45.037Z,99510
2023-04-24T09:58:44.848Z,99500
2023-04-24T10:00:46.469Z,99500
2023-04-24T10:02:45.268Z,99500
2023-04-24T10:04:54.888Z,99490
2023-04-24T10:06:46.881Z,99490
2023-04-24T10:08:47.326Z,99490
2023-04-24T10:10:46.994Z,99490
2023-04-24T10:12:47.898Z,99490
2023-04-24T10:14:48.671Z,99490
2023-04-24T10:16:48.874Z,99490
2023-04-24T10:18:49.007Z,99490
2023-04-24T10:20:48.871Z,99490
2023-04-24T10:22:50.409Z,99480
2023-04-24T10:24:50.514Z,99480
2023-04-24T10:26:50.149Z,99470
2023-04-24T10:28:50.719Z,99470
2023-04-24T10:30:53.150Z,99480
2023-04-24T10:32:50.947Z,99480
2023-04-24T10:34:51.472Z,99480
2023-04-24T10:36:54.331Z,99480
2023-04-24T10:38:53.260Z,99470
2023-04-24T10:40:58.145Z,99470
2023-04-24T10:42:53.663Z,99470
2023-04-24T10:44:53.487Z,99470
2023-04-24T10:46:55.668Z,99470
2023-04-24T10:48:55.256Z,99470
2023-04-24T10:50:54.716Z,99470
2023-04-24T10:53:06.465Z,99460
2023-04-24T10:54:55.875Z,99460
2023-04-24T10:57:25.322Z,99460
2023-04-24T10:58:56.451Z,99460
2023-04-24T11:00:58.250Z,99460
2023-04-24T11:02:57.799Z,99460
2023-04-24T11:04:57.841Z,99460
2023-04-24T11:06:58.727Z,99460
2023-04-24T11:09:04.484Z,99460
2023-04-24T11:11:02.623Z,99460
2023-04-24T11:12:59.277Z,99460
2023-04-24T11:15:02.294Z,99420
2023-04-24T11:17:00.205Z,99430
2023-04-24T11:19:02.904Z,99430
2023-04-24T11:21:10.865Z,99430
2023-04-24T11:23:04.521Z,99430
2023-04-24T11:25:03.021Z,99430
2023-04-24T11:27:08.051Z,99440
2023-04-24T11:29:07.910Z,99440
2023-04-24T11:31:32.382Z,99440
2023-04-24T11:33:04.899Z,99440
2023-04-24T11:35:05.755Z,99440
2023-04-24T11:37:04.210Z,99430
2023-04-24T11:39:05.232Z,99430
2023-04-24T11:41:06.528Z,99430
2023-04-24T11:43:07.822Z,99430
2023-04-24T11:45:10.438Z,99430
2023-04-24T11:47:06.535Z,99430
2023-04-24T11:49:06.591Z,99430
2023-04-24T11:51:06.936Z,99420
2023-04-24T11:53:07.256Z,99420
2023-04-24T11:55:22.717Z,99420
2023-04-24T11:57:08.068Z,99410
2023-04-24T11:59:08.511Z,99410
2023-04-24T12:01:08.872Z,99400
2023-04-24T12:03:10.807Z,99400
2023-04-24T12:05:10.041Z,99400
2023-04-24T12:07:10.370Z,99400
2023-04-24T12:09:17.890Z,99400
2023-04-24T12:11:10.868Z,99400
2023-04-24T12:13:11.246Z,99390
2023-04-24T12:15:11.759Z,99390
2023-04-24T12:17:12.189Z,99390
2023-04-24T12:19:12.414Z,99390
2023-04-24T12:21:17.072Z,99390
2023-04-24T12:23:13.222Z,99390
2023-04-24T12:25:15.839Z,99380
2023-04-24T12:27:20.420Z,99380
2023-04-24T12:29:21.132Z,99380
2023-04-24T12:31:15.279Z,99370
2023-04-24T12:33:18.440Z,99370
2023-04-24T12:35:21.224Z,99370
2023-04-24T12:37:15.952Z,99370
2023-04-24T12:39:16.461Z,99370
2023-04-24T12:41:16.724Z,99370
2023-04-24T12:43:19.022Z,99370
2023-04-24T12:45:19.023Z,99370
2023-04-24T12:47:17.887Z,99360
2023-04-24T12:49:18.426Z,99360
2023-04-24T12:51:18.658Z,99360
2023-04-24T12:53:19.084Z,99360
2023-04-24T12:55:19.456Z,99360
2023-04-24T12:57:19.906Z,99360
2023-04-24T12:59:20.277Z,99360
2023-04-24T13:01:20.746Z,99350
2023-04-24T13:03:21.472Z,99350
2023-04-24T13:05:23.531Z,99350
2023-04-24T13:07:21.984Z,99340
2023-04-24T13:09:22.369Z,99340
2023-04-24T13:11:22.490Z,99340
2023-04-24T13:13:24.202Z,99340
2023-04-24T13:15:23.314Z,99340
2023-04-24T13:17:23.730Z,99340
2023-04-24T13:19:25.602Z,99340
2023-04-24T13:21:24.361Z,99340
2023-04-24T13:23:24.911Z,99340
2023-04-24T13:25:25.236Z,99340
2023-04-24T13:27:25.641Z,99340
2023-04-24T13:29:26.626Z,99340
2023-04-24T13:31:26.555Z,99340
2023-04-24T13:33:26.870Z,99340
2023-04-24T13:35:27.145Z,99340
2023-04-24T13:37:27.752Z,99340
2023-04-24T13:39:27.946Z,99340
2023-04-24T13:41:28.290Z,99340
2023-04-24T13:43:28.796Z,99320
2023-04-24T13:45:29.183Z,99320
2023-04-24T13:47:29.452Z,99320
2023-04-24T13:49:29.961Z,99320
2023-04-24T13:51:30.610Z,99320
2023-04-24T13:53:30.445Z,99320
2023-04-24T13:55:30.943Z,99320
2023-04-24T13:57:31.276Z,99320
2023-04-24T13:59:31.814Z,99320
2023-04-24T14:01:32.025Z,99320
2023-04-24T14:03:34.020Z,99320
2023-04-24T14:05:32.849Z,99320
2023-04-24T14:07:33.043Z,99320
2023-04-24T14:09:33.615Z,99320
2023-04-24T14:11:34.882Z,99310
2023-04-24T14:13:34.882Z,99310
2023-04-24T14:15:36.664Z,99310
2023-04-24T14:17:35.080Z,99300
2023-04-24T14:19:35.664Z,99300
2023-04-24T14:21:35.785Z,99300
2023-04-24T14:23:36.137Z,99300
2023-04-24T14:25:36.761Z,99300
2023-04-24T14:27:37.020Z,99300
2023-04-24T14:29:37.313Z,99300
2023-04-24T14:31:37.760Z,99300
2023-04-24T14:33:38.081Z,99300
2023-04-24T14:35:38.588Z,99300
2023-04-24T14:37:38.712Z,99300
2023-04-24T14:39:39.194Z,99300
2023-04-24T14:41:39.510Z,99300
2023-04-24T14:43:40.052Z,99300
2023-04-24T14:45:40.419Z,99290
2023-04-24T14:47:40.601Z,99290
2023-04-24T14:49:40.998Z,99290
2023-04-24T14:51:41.537Z,99290
2023-04-24T14:53:41.758Z,99290
2023-04-24T14:55:42.310Z,99290
2023-04-24T14:57:43.320Z,99290
2023-04-24T14:59:42.895Z,99290
2023-04-24T15:01:43.330Z,99290
2023-04-24T15:03:43.791Z,99290
2023-04-24T15:05:44.124Z,99290
2023-04-24T15:07:44.391Z,99290
2023-04-24T15:09:44.763Z,99290
2023-04-24T15:11:45.162Z,99290
2023-04-24T15:13:46.080Z,99290
2023-04-24T15:15:47.168Z,99290
2023-04-24T15:17:46.360Z,99290
2023-04-24T15:19:46.659Z,99290
2023-04-24T15:21:46.913Z,99290
2023-04-24T15:23:47.658Z,99290
2023-04-24T15:25:48.214Z,99290
2023-04-24T15:27:48.077Z,99290
2023-04-24T15:29:48.504Z,99290
2023-04-24T15:31:48.780Z,99290
2023-04-24T15:33:49.421Z,99290
2023-04-24T15:35:49.727Z,99290
2023-04-24T15:37:49.801Z,99290
2023-04-24T15:39:50.783Z,99290
2023-04-24T15:41:50.630Z,99290
2023-04-24T15:43:50.854Z,99290
2023-04-24T15:45:51.312Z,99290
2023-04-24T15:47:51.608Z,99290
2023-04-24T15:49:52.550Z,99290
2023-04-24T15:51:52.226Z,99290
2023-04-24T15:53:52.596Z,99290
2023-04-24T15:55:53.990Z,99290
2023-04-24T15:57:53.332Z,99290
2023-04-24T15:59:53.650Z,99290
2023-04-24T16:01:54.060Z,99290
2023-04-24T16:03:54.466Z,99290
2023-04-24T16:05:54.534Z,99290
2023-04-24T16:07:55.912Z,99290
2023-04-24T16:09:55.222Z,99290
2023-04-24T16:11:55.923Z,99290
2023-04-24T16:13:55.892Z,99290
2023-04-24T16:15:56.732Z,99290
2023-04-24T16:17:56.752Z,99290
2023-04-24T16:19:56.996Z,99290
2023-04-24T16:21:57.293Z,99290
2023-04-24T16:23:57.550Z,99290
2023-04-24T16:25:58.008Z,99290
2023-04-24T16:27:58.401Z,99290
2023-04-24T16:29:59.148Z,99290
2023-04-24T16:31:58.780Z,99290
2023-04-24T16:33:59.083Z,99290
2023-04-24T16:35:59.561Z,99290
2023-04-24T16:37:59.669Z,99290
2023-04-24T16:40:00.053Z,99290
2023-04-24T16:42:01.061Z,99290
2023-04-24T16:44:00.514Z,99290
2023-04-24T16:46:01.564Z,99290
2023-04-24T16:48:01.728Z,99290
2023-04-24T16:50:01.620Z,99290
2023-04-24T16:52:02.149Z,99290
2023-04-24T16:54:02.153Z,99290
2023-04-24T16:56:02.695Z,99290
2023-04-24T16:58:02.684Z,99300
2023-04-24T17:00:03.954Z,99300
2023-04-24T17:02:03.325Z,99300
2023-04-24T17:04:03.873Z,99300
2023-04-24T17:06:04.265Z,99300
2023-04-24T17:08:04.312Z,99300
2023-04-24T17:10:05.542Z,99310
2023-04-24T17:12:05.257Z,99310
2023-04-24T17:14:05.140Z,99310
2023-04-24T17:16:05.804Z,99310
2023-04-24T17:18:05.846Z,99310
2023-04-24T17:20:18.592Z,99310
2023-04-24T17:22:06.624Z,99310
2023-04-24T17:24:06.698Z,99320
2023-04-24T17:26:06.818Z,99320
2023-04-24T17:28:22.341Z,99320
2023-04-24T17:30:08.593Z,99320
2023-04-24T17:32:07.796Z,99320
2023-04-24T17:34:07.795Z,99320
2023-04-24T17:36:08.820Z,99320
2023-04-24T17:38:08.443Z,99320
2023-04-24T17:40:09.449Z,99320
2023-04-24T17:42:08.917Z,99320
2023-04-24T17:44:09.121Z,99320
2023-04-24T17:46:09.642Z,99320
2023-04-24T17:48:09.702Z,99320
2023-04-24T17:50:10.332Z,99320
2023-04-24T17:52:10.283Z,99320
2023-04-24T17:54:10.441Z,99330
2023-04-24T17:56:10.744Z,99330
2023-04-24T17:58:11.287Z,99340
2023-04-24T18:00:12.533Z,99340
2023-04-24T18:02:11.524Z,99340
2023-04-24T18:04:11.965Z,99340
2023-04-24T18:06:12.011Z,99340
2023-04-24T18:08:12.198Z,99350
2023-04-24T18:10:12.506Z,99350
2023-04-24T18:12:12.669Z,99350
2023-04-24T18:14:12.976Z,99350
2023-04-24T18:16:13.266Z,99350
2023-04-24T18:18:13.746Z,99350
2023-04-24T18:20:15.347Z,99350
2023-04-24T18:22:13.882Z,99350
2023-04-24T18:24:14.086Z,99350
2023-04-24T18:26:14.417Z,99350
2023-04-24T18:28:14.625Z,99350
2023-04-24T18:30:15.192Z,99350
2023-04-24T18:32:15.179Z,99350
2023-04-24T18:34:15.299Z,99350
2023-04-24T18:36:15.632Z,99350
2023-04-24T18:38:15.799Z,99350
2023-04-24T18:40:16.851Z,99350
2023-04-24T18:42:16.404Z,99350
2023-04-24T18:44:16.918Z,99350
2023-04-24T18:46:16.875Z,99360
2023-04-24T18:48:16.891Z,99360
2023-04-24T18:50:17.213Z,99360
2023-04-24T18:52:17.339Z,99360
2023-04-24T18:54:17.551Z,99370
2023-04-24T18:56:17.775Z,99370
2023-04-24T18:58:18.060Z,99370
2023-04-24T19:00:18.441Z,99370
2023-04-24T19:02:18.720Z,99370
2023-04-24T19:04:18.684Z,99370
2023-04-24T19:06:18.836Z,99370
2023-04-24T19:08:19.098Z,99370
2023-04-24T19:10:19.385Z,99370
2023-04-24T19:12:21.614Z,99370
2023-04-24T19:14:19.839Z,99370
2023-04-24T19:16:20.100Z,99370
2023-04-24T19:18:20.117Z,99370
2023-04-24T19:20:20.419Z,99370
2023-04-24T19:22:20.694Z,99370
2023-04-24T19:24:20.799Z,99380
2023-04-24T19:26:21.086Z,99380
2023-04-24T19:28:21.312Z,99380
2023-04-24T19:30:21.529Z,99380
2023-04-24T19:32:21.732Z,99380
2023-04-24T19:34:22.088Z,99380
2023-04-24T19:36:22.160Z,99380
2023-04-24T19:38:22.218Z,99380
2023-04-24T19:40:22.493Z,99380
2023-04-24T19:42:31.838Z,99380
2023-04-24T19:44:22.892Z,99380
2023-04-24T19:46:23.665Z,99380
2023-04-24T19:48:23.170Z,99380
2023-04-24T19:50:23.478Z,99390
2023-04-24T19:52:23.478Z,99390
2023-04-24T19:54:23.764Z,99390
2023-04-24T19:56:23.964Z,99390
2023-04-24T19:58:24.157Z,99390
2023-04-24T20:00:24.171Z,99390
2023-04-24T20:02:24.981Z,99390
2023-04-24T20:04:24.796Z,99390
2023-04-24T20:06:24.876Z,99390
2023-04-24T20:08:24.982Z,99390
2023-04-24T20:10:25.168Z,99390
2023-04-24T20:12:25.522Z,99390
2023-04-24T20:14:25.739Z,99390
2023-04-24T20:16:25.782Z,99390
2023-04-24T20:18:25.986Z,99390
2023-04-24T20:20:26.745Z,99390
2023-04-24T20:22:26.297Z,99390
2023-04-24T20:24:26.540Z,99390
2023-04-24T20:26:26.789Z,99390
2023-04-24T20:28:27.599Z,99390
2023-04-24T20:30:27.080Z,99390
2023-04-24T20:32:27.474Z,99390
2023-04-24T20:34:27.488Z,99390
2023-04-24T20:36:27.615Z,99390
2023-04-24T20:38:27.843Z,99390
2023-04-24T20:40:28.190Z,99400
2023-04-24T20:42:28.136Z,99400
2023-04-24T20:44:28.513Z,99400
2023-04-24T20:46:29.088Z,99400
2023-04-24T20:48:28.708Z,99400
2023-04-24T20:50:28.978Z,99400
2023-04-24T20:52:29.089Z,99400
2023-04-24T20:54:29.394Z,99400
2023-04-24T20:56:30.366Z,99400
2023-04-24T20:58:29.693Z,99400
2023-04-24T21:00:29.872Z,99400
2023-04-24T21:02:30.466Z,99400
2023-04-24T21:04:30.220Z,99400
2023-04-24T21:06:30.304Z,99400
2023-04-24T21:08:30.859Z,99400
2023-04-24T21:10:30.724Z,99400
2023-04-24T21:12:30.878Z,99400
2023-04-24T21:14:31.156Z,99400
2023-04-24T21:16:31.380Z,99400
2023-04-24T21:18:31.508Z,99400
2023-04-24T21:20:31.946Z,99400
2023-04-24T21:22:31.836Z,99400
2023-04-24T21:24:32.237Z,99400
2023-04-24T21:26:32.500Z,99400
2023-04-24T21:28:32.717Z,99400
2023-04-24T21:30:32.812Z,99400
2023-04-24T21:32:33.084Z,99400
2023-04-24T21:34:33.152Z,99400
2023-04-24T21:36:33.276Z,99400
2023-04-24T21:38:33.401Z,99400
2023-04-24T21:40:33.682Z,99400
2023-04-24T21:42:33.759Z,99400
2023-04-24T21:44:34.290Z,99400
2023-04-24T21:46:34.481Z,99400
2023-04-24T21:48:34.401Z,99400
2023-04-24T21:50:34.513Z,99400
2023-04-24T21:52:34.799Z,99400
2023-04-24T21:54:34.905Z,99400
2023-04-24T21:56:35.279Z,99400
2023-04-24T21:58:35.760Z,99400
2023-04-24T22:00:36.169Z,99400
2023-04-24T22:02:35.900Z,99400
2023-04-24T22:04:35.976Z,99400
2023-04-24T22:06:36.413Z,99400
2023-04-24T22:08:36.373Z,99400
2023-04-24T22:10:36.383Z,99400
2023-04-24T22:12:36.535Z,99400
2023-04-24T22:14:36.756Z,99400
2023-04-24T22:16:37.109Z,99400
2023-04-24T22:18:46.450Z,99400
2023-04-24T22:20:37.523Z,99400
2023-04-24T22:22:38.356Z,99400
2023-04-24T22:24:37.736Z,99400
2023-04-24T22:26:37.766Z,99400
2023-04-24T22:28:37.860Z,99400
2023-04-24T22:30:38.133Z,99400
2023-04-24T22:32:38.408Z,99400
2023-04-24T22:34:38.451Z,99390
2023-04-24T22:36:38.607Z,99390
2023-04-24T22:38:38.857Z,99390
2023-04-24T22:40:39.047Z,99390
2023-04-24T22:42:39.328Z,99390
2023-04-24T22:44:39.413Z,99390
2023-04-24T22:46:39.789Z,99390
2023-04-24T22:48:39.730Z,99390
2023-04-24T22:50:40.331Z,99390
2023-04-24T22:52:39.995Z,99390
2023-04-24T22:54:40.687Z,99390
2023-04-24T22:56:41.127Z,99390
2023-04-24T22:58:40.541Z,99390
2023-04-24T23:00:40.701Z,99390
2023-04-24T23:02:41.815Z,99390
2023-04-24T23:04:41.031Z,99390
2023-04-24T23:06:41.159Z,99390
2023-04-24T23:08:41.382Z,99390
2023-04-24T23:10:41.571Z,99390
2023-04-24T23:12:41.739Z,99390
2023-04-24T23:14:41.911Z,99390
2023-04-24T23:16:42.035Z,99380
2023-04-24T23:18:42.125Z,99380
2023-04-24T23:20:42.465Z,99380
2023-04-24T23:22:42.620Z,99380
2023-04-24T23:24:42.714Z,99380
2023-04-24T23:26:42.872Z,99380
2023-04-24T23:28:42.961Z,99380
2023-04-24T23:30:43.126Z,99380
2023-04-24T23:32:43.436Z,99380
2023-04-24T23:34:43.577Z,99380
2023-04-24T23:36:43.756Z,99380
2023-04-24T23:38:50.316Z,99380
2023-04-24T23:40:44.167Z,99380
2023-04-24T23:42:44.658Z,99380
2023-04-24T23:44:44.308Z,99380
2023-04-24T23:46:44.573Z,99380
2023-04-24T23:48:44.754Z,99370
2023-04-24T23:50:44.882Z,99370
2023-04-24T23:52:45.220Z,99370
2023-04-24T23:54:45.467Z,99360
2023-04-24T23:56:45.700Z,99360
2023-04-24T23:58:45.701Z,99360
